Time;durP1;ratioP1;P1;durP2;ratioP2;P2;SDS_P1;SDS_P2;PMS_P1;PMS_P2;Temp;Humidity;BMP_temperature;BMP_pressure;BME280_temperature;BME280_humidity;BME280_pressure;Samples;Min_cycle;Max_cycle;Signal;HPM_P1;HPM_P2
2022/04/09 00:02:07;;;;;;;0.10;0.10;;;;;;;-0.05;100.00;97130.75;4993349;28;20369;-70
2022/04/09 00:04:33;;;;;;;0.10;0.10;;;;;;;-0.10;100.00;97143.75;4992764;28;20109;-70
2022/04/09 00:06:58;;;;;;;2.55;0.20;;;;;;;0.01;100.00;97169.91;4994214;28;20110;-71
2022/04/09 00:09:23;;;;;;;0.15;0.10;;;;;;;0.08;100.00;97194.81;4983223;28;20034;-71
2022/04/09 00:11:49;;;;;;;0.20;0.10;;;;;;;0.13;100.00;97210.19;4994032;28;20077;-70
2022/04/09 00:14:15;;;;;;;0.00;0.00;;;;;;;0.13;100.00;97213.72;4993028;28;20030;-69
2022/04/09 00:16:40;;;;;;;1.02;0.20;;;;;;;0.13;100.00;97216.38;4979563;28;20033;-69
2022/04/09 00:19:06;;;;;;;0.20;0.20;;;;;;;0.02;100.00;97222.06;4984892;28;20113;-69
2022/04/09 00:21:32;;;;;;;0.10;0.10;;;;;;;0.17;100.00;97262.88;4986633;28;20026;-69
2022/04/09 00:23:57;;;;;;;0.50;0.40;;;;;;;0.19;100.00;97270.69;4992628;28;20105;-69
2022/04/09 00:26:23;;;;;;;0.30;0.30;;;;;;;0.15;100.00;97266.69;4992292;28;20089;-68
2022/04/09 00:28:48;;;;;;;0.40;0.30;;;;;;;0.18;100.00;97275.19;4990981;28;20038;-68
2022/04/09 00:31:14;;;;;;;0.30;0.30;;;;;;;0.16;100.00;97289.66;4983860;28;20114;-69
2022/04/09 00:33:39;;;;;;;0.30;0.30;;;;;;;0.07;100.00;97293.34;4992007;28;20040;-69
2022/04/09 00:36:04;;;;;;;0.30;0.30;;;;;;;0.15;100.00;97326.03;4982631;28;20038;-69
2022/04/09 00:38:30;;;;;;;1.52;0.40;;;;;;;0.23;100.00;97341.13;4988527;28;20038;-69
2022/04/09 00:40:55;;;;;;;0.30;0.28;;;;;;;0.16;100.00;97340.19;4991289;28;20626;-69
2022/04/09 00:43:21;;;;;;;0.38;0.38;;;;;;;0.31;100.00;97362.34;4993769;28;20145;-69
2022/04/09 00:45:49;;;;;;;1.85;0.60;;;;;;;0.32;100.00;97374.66;4993888;28;20433;-68
2022/04/09 00:48:21;;;;;;;0.60;0.40;;;;;;;0.36;100.00;97372.47;4995126;28;20030;-68
2022/04/09 00:50:47;;;;;;;0.40;0.40;;;;;;;0.29;100.00;97360.88;4996221;28;20300;-70
2022/04/09 00:53:14;;;;;;;0.40;0.40;;;;;;;0.37;100.00;97398.09;4993268;28;20057;-70
2022/04/09 00:58:28;;;;;;;0.93;0.60;;;;;;;0.37;100.00;97400.75;4999494;28;20503;-70
2022/04/09 01:00:53;;;;;;;0.52;0.52;;;;;;;0.44;100.00;97412.34;4996354;28;20042;-69
2022/04/09 01:03:19;;;;;;;0.65;0.57;;;;;;;0.39;100.00;97410.22;4994934;28;20046;-69
2022/04/09 01:05:45;;;;;;;0.60;0.60;;;;;;;0.33;100.00;97399.44;4988203;28;20048;-68
2022/04/09 01:08:12;;;;;;;0.55;0.50;;;;;;;0.43;100.00;97438.13;4981421;28;20504;-69
2022/04/09 01:10:37;;;;;;;1.05;0.60;;;;;;;0.42;100.00;97430.34;4984469;28;20035;-69
2022/04/09 01:13:03;;;;;;;0.77;0.60;;;;;;;0.40;100.00;97427.84;4987799;28;20532;-69
2022/04/09 01:15:28;;;;;;;0.85;0.55;;;;;;;0.48;100.00;97450.91;4993716;28;20041;-69
2022/04/09 01:17:53;;;;;;;0.80;0.50;;;;;;;0.54;100.00;97458.19;4980060;28;20038;-70
2022/04/09 01:20:21;;;;;;;0.90;0.63;;;;;;;0.40;100.00;97453.63;4980923;28;20038;-70
2022/04/09 01:22:47;;;;;;;0.70;0.60;;;;;;;0.51;100.00;97476.34;4982962;28;20026;-68
2022/04/09 01:25:12;;;;;;;1.00;0.60;;;;;;;0.50;100.00;97501.28;4993370;28;20045;-69
2022/04/09 01:27:38;;;;;;;3.85;0.77;;;;;;;0.55;100.00;97505.13;4992429;28;20093;-69
2022/04/09 01:30:04;;;;;;;2.40;0.90;;;;;;;0.54;100.00;97524.72;4986371;28;20030;-69
2022/04/09 01:32:29;;;;;;;1.25;0.75;;;;;;;0.57;100.00;97531.53;4975763;28;20038;-69
2022/04/09 01:34:54;;;;;;;1.40;0.88;;;;;;;0.36;100.00;97518.78;4992958;28;20043;-69
2022/04/09 01:37:20;;;;;;;1.23;0.80;;;;;;;0.55;100.00;97542.38;4985889;28;20117;-69
2022/04/09 01:39:45;;;;;;;1.13;0.90;;;;;;;0.53;100.00;97549.69;4992913;28;20034;-70
2022/04/09 01:42:10;;;;;;;1.50;1.05;;;;;;;0.41;100.00;97543.06;4986646;28;20130;-69
2022/04/09 01:44:39;;;;;;;2.83;0.98;;;;;;;0.49;100.00;97566.97;4990408;28;20034;-69
2022/04/09 01:47:04;;;;;;;2.20;1.30;;;;;;;0.46;100.00;97563.84;4990737;28;20030;-69
2022/04/09 01:49:30;;;;;;;1.52;1.05;;;;;;;0.52;100.00;97585.25;4991391;28;20022;-69
2022/04/09 01:51:55;;;;;;;5.15;1.15;;;;;;;0.53;100.00;97596.75;4999546;28;20149;-69
2022/04/09 01:54:20;;;;;;;3.92;1.70;;;;;;;0.54;100.00;97607.22;4983308;28;20041;-70
2022/04/09 01:56:46;;;;;;;3.60;1.63;;;;;;;0.63;100.00;97608.06;4988678;28;20037;-69
2022/04/09 01:59:11;;;;;;;2.55;1.80;;;;;;;0.67;100.00;97609.38;4992628;28;20493;-69
2022/04/09 02:01:36;;;;;;;2.38;1.45;;;;;;;0.74;100.00;97631.66;4993573;28;20029;-70
2022/04/09 02:04:02;;;;;;;6.15;2.05;;;;;;;0.73;100.00;97635.28;4998209;28;20038;-69
2022/04/09 02:06:28;;;;;;;6.78;1.90;;;;;;;0.73;100.00;97645.94;4992125;28;20392;-70
2022/04/09 02:08:54;;;;;;;3.33;2.10;;;;;;;0.70;100.00;97651.59;4989111;28;20030;-69
2022/04/09 02:11:19;;;;;;;4.88;2.60;;;;;;;0.65;100.00;97653.94;4994768;28;20437;-70
2022/04/09 02:13:44;;;;;;;4.78;2.47;;;;;;;0.59;100.00;97655.44;4992647;28;20042;-69
2022/04/09 02:16:10;;;;;;;3.65;2.40;;;;;;;0.65;100.00;97664.59;4993069;28;20042;-69
2022/04/09 02:18:35;;;;;;;6.22;3.10;;;;;;;0.65;100.00;97654.81;4977292;28;20117;-70
2022/04/09 02:21:00;;;;;;;5.93;3.03;;;;;;;0.64;100.00;97678.91;4994692;28;20045;-69
2022/04/09 02:23:26;;;;;;;5.75;3.30;;;;;;;0.62;100.00;97676.41;4990372;28;20044;-69
2022/04/09 02:25:51;;;;;;;5.97;3.63;;;;;;;0.62;100.00;97679.06;5008730;28;20397;-70
2022/04/09 02:28:16;;;;;;;5.30;3.40;;;;;;;0.58;100.00;97690.25;4993381;28;20023;-69
2022/04/09 02:30:42;;;;;;;6.05;3.55;;;;;;;0.57;100.00;97693.88;4990045;28;20034;-69
2022/04/09 02:33:07;;;;;;;4.88;2.88;;;;;;;0.47;100.00;97687.88;5006129;28;20048;-69
2022/04/09 02:35:32;;;;;;;7.65;3.13;;;;;;;0.50;100.00;97715.03;4996312;28;20511;-70
2022/04/09 02:37:58;;;;;;;4.22;2.50;;;;;;;0.60;100.00;97720.16;4992627;28;20393;-70
2022/04/09 02:40:24;;;;;;;6.95;2.90;;;;;;;0.38;100.00;97700.38;4986567;28;20057;-71
2022/04/09 02:42:50;;;;;;;3.83;2.40;;;;;;;0.54;100.00;97724.31;4996086;28;20021;-69
2022/04/09 02:45:15;;;;;;;4.20;2.53;;;;;;;0.53;100.00;97743.13;4988480;28;20022;-69
2022/04/09 02:47:41;;;;;;;4.40;2.70;;;;;;;0.61;100.00;97756.44;4989922;28;20109;-67
2022/04/09 02:50:07;;;;;;;4.80;3.00;;;;;;;0.62;100.00;97763.41;5000394;28;20026;-67
2022/04/09 02:52:40;;;;;;;6.15;2.92;;;;;;;0.52;100.00;97757.41;4992501;28;20018;-72
2022/04/09 02:55:06;;;;;;;3.65;2.47;;;;;;;0.67;100.00;97779.72;4991506;28;20699;-67
2022/04/09 02:57:32;;;;;;;4.82;3.20;;;;;;;0.65;100.00;97787.03;4983672;28;20022;-70
2022/04/09 02:59:58;;;;;;;5.78;3.05;;;;;;;0.78;100.00;97795.34;4990916;28;20523;-70
2022/04/09 03:02:23;;;;;;;4.60;3.00;;;;;;;0.67;100.00;97800.19;4995572;28;20037;-70
2022/04/09 03:04:49;;;;;;;4.28;2.83;;;;;;;0.47;100.00;97781.84;4985312;28;20073;-70
2022/04/09 03:07:14;;;;;;;5.00;2.78;;;;;;;0.70;100.00;97819.31;4995310;28;20018;-70
2022/04/09 03:09:39;;;;;;;5.00;2.83;;;;;;;0.72;100.00;97829.81;4994913;28;20034;-70
2022/04/09 03:12:05;;;;;;;4.05;2.47;;;;;;;0.56;100.00;97830.63;4996695;28;20388;-70
2022/04/09 03:14:30;;;;;;;5.15;2.90;;;;;;;0.52;100.00;97846.06;4995489;28;20026;-70
2022/04/09 03:16:56;;;;;;;4.95;3.05;;;;;;;0.58;100.00;97847.25;4993857;28;20031;-70
2022/04/09 03:19:22;;;;;;;5.88;3.30;;;;;;;0.42;100.00;97819.63;4985943;28;20030;-69
2022/04/09 03:21:47;;;;;;;6.32;3.08;;;;;;;0.52;100.00;97856.72;4993989;28;20025;-70
2022/04/09 03:24:12;;;;;;;5.68;3.55;;;;;;;0.48;100.00;97852.72;5000694;28;20031;-69
2022/04/09 03:26:38;;;;;;;4.40;2.92;;;;;;;0.49;100.00;97850.88;4989755;28;20080;-69
2022/04/09 03:29:03;;;;;;;5.80;3.45;;;;;;;0.65;100.00;97874.88;4986932;28;20027;-69
2022/04/09 03:31:29;;;;;;;5.38;3.17;;;;;;;0.69;100.00;97886.03;4973581;28;20033;-69
2022/04/09 03:33:54;;;;;;;6.05;3.80;;;;;;;0.72;100.00;97886.53;4993686;28;20038;-69
2022/04/09 03:36:20;;;;;;;7.85;3.88;;;;;;;0.56;100.00;97879.34;4990756;28;20034;-69
2022/04/09 03:38:45;;;;;;;4.28;2.97;;;;;;;0.72;100.00;97902.50;4978323;28;20389;-69
2022/04/09 03:41:10;;;;;;;5.57;3.22;;;;;;;0.74;100.00;97921.00;4981219;28;20063;-69
2022/04/09 03:43:36;;;;;;;6.10;4.05;;;;;;;0.75;100.00;97914.66;4994838;28;20117;-69
2022/04/09 03:46:01;;;;;;;6.30;3.80;;;;;;;0.76;100.00;97909.19;4991112;28;20096;-69
2022/04/09 03:48:27;;;;;;;4.70;3.15;;;;;;;0.77;100.00;97923.31;4993137;28;20493;-69
2022/04/09 03:50:52;;;;;;;9.05;3.95;;;;;;;0.73;100.00;97924.63;4985451;28;20200;-69
2022/04/09 03:53:20;;;;;;;5.30;3.35;;;;;;;0.74;100.00;97939.63;4983314;28;20023;-70
2022/04/09 03:55:48;;;;;;;6.00;3.20;;;;;;;0.75;100.00;97946.59;4992977;28;20131;-69
2022/04/09 03:58:16;;;;;;;6.90;3.85;;;;;;;0.80;100.00;97954.94;4996230;28;20054;-69
2022/04/09 04:00:42;;;;;;;7.50;4.25;;;;;;;0.78;100.00;97951.59;4983149;28;20213;-69
2022/04/09 04:03:09;;;;;;;5.93;4.13;;;;;;;0.86;100.00;97962.28;4982245;28;20702;-69
2022/04/09 04:05:36;;;;;;;8.30;4.60;;;;;;;0.77;100.00;97939.28;4977700;28;20018;-69
2022/04/09 04:08:03;;;;;;;9.13;4.82;;;;;;;0.88;100.00;97958.44;4984616;28;20031;-70
2022/04/09 04:10:28;;;;;;;11.43;4.90;;;;;;;0.88;100.00;97965.63;4982676;28;20015;-69
2022/04/09 04:12:53;;;;;;;7.85;4.82;;;;;;;0.84;100.00;97953.63;4992894;28;20076;-69
2022/04/09 04:15:19;;;;;;;9.20;5.38;;;;;;;0.97;100.00;97982.44;4985829;28;20070;-69
2022/04/09 04:17:44;;;;;;;17.13;6.13;;;;;;;1.04;100.00;97984.28;4987945;28;20433;-69
2022/04/09 04:20:11;;;;;;;11.00;5.97;;;;;;;1.04;100.00;97991.44;4980202;28;20045;-69
2022/04/09 04:22:37;;;;;;;11.05;6.43;;;;;;;1.06;100.00;97998.28;4991493;28;20035;-69
2022/04/09 04:25:05;;;;;;;17.98;6.30;;;;;;;0.98;100.00;97987.63;4991638;28;20802;-67
2022/04/09 04:27:31;;;;;;;12.90;6.83;;;;;;;0.92;100.00;97996.25;4999606;28;20053;-70
2022/04/09 04:30:00;;;;;;;14.40;6.80;;;;;;;0.93;100.00;98010.41;4994453;28;20460;-69
2022/04/09 04:32:26;;;;;;;15.95;7.15;;;;;;;0.90;100.00;98005.41;4997605;28;20038;-68
2022/04/09 04:34:51;;;;;;;13.13;6.43;;;;;;;0.85;100.00;98005.88;4984350;28;20518;-69
2022/04/09 04:37:17;;;;;;;13.25;7.80;;;;;;;0.79;100.00;98006.53;4988543;28;20027;-69
2022/04/09 04:39:42;;;;;;;14.82;7.10;;;;;;;0.74;100.00;98016.84;4995256;28;20026;-69
2022/04/09 04:42:07;;;;;;;14.63;6.40;;;;;;;0.49;100.00;97981.28;4987878;28;20062;-69
2022/04/09 04:44:33;;;;;;;13.55;7.28;;;;;;;0.64;100.00;98039.06;4994488;28;20888;-69
2022/04/09 04:46:59;;;;;;;14.77;6.43;;;;;;;0.44;100.00;98011.84;4996531;28;20037;-69
2022/04/09 04:49:24;;;;;;;17.70;7.43;;;;;;;0.52;100.00;98044.84;4985781;28;20034;-69
2022/04/09 04:51:49;;;;;;;16.08;7.03;;;;;;;0.41;100.00;98035.28;4995254;28;20440;-69
2022/04/09 04:54:15;;;;;;;17.95;7.45;;;;;;;0.38;100.00;98036.44;4989072;28;20040;-70
2022/04/09 04:56:40;;;;;;;17.58;7.55;;;;;;;0.39;100.00;98046.13;4986322;28;20114;-70
2022/04/09 04:59:07;;;;;;;15.98;6.85;;;;;;;0.31;100.00;98043.38;4988625;28;20137;-69
2022/04/09 05:01:34;;;;;;;18.40;7.93;;;;;;;0.40;100.00;98054.94;4990605;28;20023;-69
2022/04/09 05:04:00;;;;;;;21.38;9.05;;;;;;;0.40;100.00;98052.25;4991494;28;20086;-69
2022/04/09 05:06:26;;;;;;;14.52;7.35;;;;;;;0.59;100.00;98064.50;4994036;28;20026;-69
2022/04/09 05:08:51;;;;;;;18.83;8.40;;;;;;;0.63;100.00;98077.34;4986655;28;20031;-71
2022/04/09 05:11:16;;;;;;;18.33;9.40;;;;;;;0.68;100.00;98079.50;4991300;28;20035;-70
2022/04/09 05:13:42;;;;;;;13.70;8.10;;;;;;;0.74;100.00;98078.06;4988472;28;20054;-71
2022/04/09 05:16:07;;;;;;;14.93;7.32;;;;;;;0.63;100.00;98071.19;4990569;28;20037;-70
2022/04/09 05:18:34;;;;;;;19.70;8.65;;;;;;;0.62;100.00;98059.69;4983193;28;20038;-70
2022/04/09 05:20:59;;;;;;;17.70;6.95;;;;;;;0.65;100.00;98074.50;4991016;28;20508;-70
2022/04/09 05:23:24;;;;;;;17.73;7.68;;;;;;;0.75;100.00;98109.00;4992746;28;20029;-70
2022/04/09 05:25:50;;;;;;;13.00;6.85;;;;;;;0.83;100.00;98111.72;4983537;28;20030;-68
2022/04/09 05:28:15;;;;;;;16.25;6.22;;;;;;;0.87;100.00;98118.41;4992367;28;20037;-69
2022/04/09 05:30:44;;;;;;;14.85;7.13;;;;;;;0.92;100.00;98128.56;4985080;28;20026;-72
2022/04/09 05:33:10;;;;;;;16.05;7.15;;;;;;;0.68;100.00;98113.28;4981094;28;20110;-71
2022/04/09 05:35:36;;;;;;;14.00;6.93;;;;;;;0.87;100.00;98139.72;4995765;28;20524;-69
2022/04/09 05:38:03;;;;;;;12.15;7.15;;;;;;;0.88;100.00;98136.88;4996057;28;20029;-71
2022/04/09 05:40:29;;;;;;;17.88;7.60;;;;;;;0.91;100.00;98158.84;4984731;28;20033;-72
2022/04/09 05:42:55;;;;;;;12.55;7.15;;;;;;;0.93;100.00;98155.03;4986621;28;20030;-71
2022/04/09 05:45:20;;;;;;;15.40;6.90;;;;;;;0.76;100.00;98127.50;4993381;28;20028;-71
2022/04/09 05:47:46;;;;;;;14.23;7.35;;;;;;;0.97;100.00;98163.53;4994705;28;20030;-71
2022/04/09 05:50:12;;;;;;;16.83;8.25;;;;;;;0.88;100.00;98165.34;4980553;28;20484;-71
2022/04/09 05:52:39;;;;;;;16.55;7.78;;;;;;;0.98;100.00;98168.72;4994047;28;20026;-70
2022/04/09 05:55:06;;;;;;;22.40;8.98;;;;;;;1.06;100.00;98173.25;4979345;28;20485;-71
2022/04/09 05:57:32;;;;;;;17.83;8.43;;;;;;;1.08;100.00;98182.75;4981979;28;20073;-68
2022/04/09 05:59:58;;;;;;;17.00;8.15;;;;;;;1.02;100.00;98180.75;4993040;28;20077;-68
2022/04/09 06:02:23;;;;;;;17.10;8.50;;;;;;;1.32;100.00;98197.19;4993589;28;20477;-68
2022/04/09 06:04:49;;;;;;;20.65;8.65;;;;;;;1.22;100.00;98164.50;4991924;28;20041;-69
2022/04/09 06:07:14;;;;;;;15.13;7.65;;;;;;;1.70;100.00;98195.00;4983761;28;20041;-68
2022/04/09 06:09:42;;;;;;;13.23;7.40;;;;;;;2.89;100.00;98209.81;4989186;28;20022;-68
2022/04/09 06:12:09;;;;;;;13.77;7.75;;;;;;;3.88;100.00;98205.81;4985685;28;20160;-68
2022/04/09 06:14:35;;;;;;;11.50;6.15;;;;;;;5.53;90.66;98216.78;4990000;28;20109;-67
2022/04/09 06:17:00;;;;;;;11.77;6.07;;;;;;;5.74;85.43;98148.94;4983493;28;20068;-68
2022/04/09 06:19:27;;;;;;;9.75;5.40;;;;;;;6.72;81.23;98220.03;4982741;28;20030;-68
2022/04/09 06:21:53;;;;;;;16.10;6.03;;;;;;;5.54;84.07;98197.81;4986209;28;20434;-68
2022/04/09 06:24:18;;;;;;;7.95;4.90;;;;;;;7.25;82.84;98236.59;4988532;28;20027;-68
2022/04/09 06:26:43;;;;;;;10.35;4.95;;;;;;;10.39;64.89;98222.44;4993415;28;20499;-70
2022/04/09 06:29:09;;;;;;;6.78;4.55;;;;;;;11.69;61.87;98194.72;4986163;28;20030;-68
2022/04/09 06:31:34;;;;;;;8.60;4.45;;;;;;;11.54;57.33;98236.53;4980603;28;20022;-68
2022/04/09 06:33:59;;;;;;;8.40;4.85;;;;;;;10.09;60.13;98244.59;4988221;28;20058;-70
2022/04/09 06:36:25;;;;;;;7.50;4.50;;;;;;;8.72;65.48;98251.56;4993601;28;20049;-69
2022/04/09 06:38:50;;;;;;;8.57;4.95;;;;;;;7.95;67.19;98267.06;4980917;28;20475;-69
2022/04/09 06:41:18;;;;;;;9.07;5.03;;;;;;;8.03;67.59;98264.19;4986769;28;20027;-68
2022/04/09 06:43:45;;;;;;;8.82;4.30;;;;;;;9.83;63.42;98256.31;4988803;28;20030;-71
2022/04/09 06:46:10;;;;;;;10.82;4.55;;;;;;;10.26;60.49;98258.44;4986289;28;20027;-68
2022/04/09 06:48:36;;;;;;;8.52;4.90;;;;;;;10.75;59.58;98263.22;4988335;28;20027;-71
2022/04/09 06:51:01;;;;;;;8.75;5.50;;;;;;;10.01;60.50;98261.88;4992175;28;20512;-69
2022/04/09 06:53:26;;;;;;;9.77;5.75;;;;;;;11.25;57.27;98258.91;4985055;28;20116;-70
2022/04/09 06:55:52;;;;;;;16.27;7.10;;;;;;;11.85;54.44;98251.84;4989006;28;20018;-71
2022/04/09 06:58:17;;;;;;;10.68;6.20;;;;;;;12.59;52.99;98267.28;4986846;28;20019;-72
2022/04/09 07:00:44;;;;;;;7.80;5.25;;;;;;;12.64;50.84;98267.41;4991872;28;20048;-71
2022/04/09 07:03:10;;;;;;;6.25;4.72;;;;;;;13.42;49.68;98265.66;4978985;28;20037;-71
2022/04/09 07:05:36;;;;;;;14.48;7.32;;;;;;;13.25;48.96;98269.00;4986640;28;20105;-71
2022/04/09 07:08:01;;;;;;;15.25;9.20;;;;;;;14.16;48.06;98283.09;4985150;28;20110;-71
2022/04/09 07:10:27;;;;;;;10.32;6.07;;;;;;;13.03;47.79;98293.16;5002061;28;20362;-70
2022/04/09 07:12:52;;;;;;;8.80;5.10;;;;;;;9.79;55.95;98296.41;4988495;28;20035;-67
2022/04/09 07:15:17;;;;;;;7.60;4.15;;;;;;;8.03;63.83;98291.13;4986570;28;20030;-71
2022/04/09 07:17:43;;;;;;;9.13;5.25;;;;;;;6.49;71.42;98314.28;4990137;28;20022;-71
2022/04/09 07:20:09;;;;;;;6.28;4.43;;;;;;;5.41;75.08;98321.88;4993147;28;20136;-73
2022/04/09 07:22:36;;;;;;;8.50;4.95;;;;;;;4.93;78.40;98307.91;4990301;28;20037;-71
2022/04/09 07:25:03;;;;;;;9.23;4.90;;;;;;;6.47;74.79;98335.13;4988003;28;20026;-71
2022/04/09 07:27:40;;;;;;;10.00;4.95;;;;;;;8.95;65.52;98330.25;4984693;28;20134;-69
2022/04/09 07:30:11;;;;;;;8.57;5.43;;;;;;;8.63;64.59;98325.63;4987384;28;20022;-75
2022/04/09 07:32:36;;;;;;;7.20;4.68;;;;;;;7.14;68.34;98323.22;4993206;28;21540;-71
2022/04/09 07:35:02;;;;;;;7.68;4.93;;;;;;;6.41;72.63;98354.69;4990047;28;20026;-70
2022/04/09 07:37:28;;;;;;;8.23;5.28;;;;;;;5.47;77.74;98329.19;4992904;28;20073;-70
2022/04/09 07:39:53;;;;;;;10.23;5.20;;;;;;;4.71;83.08;98363.13;4993147;28;20484;-71
2022/04/09 07:42:21;;;;;;;11.95;5.63;;;;;;;3.71;88.05;98339.63;4989406;28;20030;-71
2022/04/09 07:44:47;;;;;;;13.25;5.32;;;;;;;3.57;91.26;98348.38;4983156;28;20442;-69
2022/04/09 07:47:13;;;;;;;9.90;5.13;;;;;;;3.74;93.45;98381.25;4997815;28;20087;-70
2022/04/09 07:49:39;;;;;;;9.63;5.20;;;;;;;3.41;92.95;98349.22;4993117;28;20401;-71
2022/04/09 07:52:04;;;;;;;10.73;5.85;;;;;;;3.66;92.48;98390.13;4992318;28;20041;-70
2022/04/09 07:54:31;;;;;;;10.50;4.85;;;;;;;3.91;92.52;98388.25;4985985;28;20034;-64
2022/04/09 07:56:56;;;;;;;7.43;5.13;;;;;;;3.27;92.80;98385.50;4996849;28;20523;-71
2022/04/09 07:59:22;;;;;;;9.43;4.45;;;;;;;3.60;91.35;98404.19;4990928;28;20035;-71
2022/04/09 08:01:47;;;;;;;8.68;4.75;;;;;;;3.81;92.13;98409.03;5003095;28;20075;-73
2022/04/09 08:04:12;;;;;;;11.60;5.40;;;;;;;4.08;91.96;98389.03;4992665;28;20049;-72
2022/04/09 08:06:38;;;;;;;9.95;5.07;;;;;;;4.34;90.99;98407.53;4995409;28;20105;-76
2022/04/09 08:09:04;;;;;;;9.48;5.22;;;;;;;4.34;91.40;98394.13;4997421;28;20037;-75
2022/04/09 08:11:29;;;;;;;9.63;4.47;;;;;;;4.61;90.38;98411.59;4988990;28;20050;-71
2022/04/09 08:13:55;;;;;;;10.40;5.25;;;;;;;4.70;88.53;98419.59;4988286;28;20138;-69
2022/04/09 08:16:20;;;;;;;16.70;7.40;;;;;;;4.72;89.27;98407.69;4996061;28;20054;-74
2022/04/09 08:18:45;;;;;;;9.93;5.40;;;;;;;4.24;88.23;98398.84;4998291;28;20082;-70
2022/04/09 08:21:11;;;;;;;10.15;4.55;;;;;;;4.35;89.02;98416.41;4997382;28;20468;-71
2022/04/09 08:23:36;;;;;;;8.77;5.13;;;;;;;4.26;90.29;98375.41;5000394;28;20022;-74
2022/04/09 08:26:01;;;;;;;11.50;4.60;;;;;;;4.91;86.77;98416.31;5002319;28;20038;-73
2022/04/09 08:28:30;;;;;;;8.27;4.43;;;;;;;5.52;84.54;98414.50;4992209;28;20105;-73
2022/04/09 08:30:56;;;;;;;9.88;5.00;;;;;;;5.45;84.27;98430.50;4984243;28;20034;-73
2022/04/09 08:33:22;;;;;;;11.35;4.68;;;;;;;5.37;84.71;98429.72;4988916;28;20102;-71
2022/04/09 08:35:48;;;;;;;7.07;3.92;;;;;;;4.99;84.17;98403.66;5013620;28;20026;-73
2022/04/09 08:38:13;;;;;;;15.60;4.20;;;;;;;5.42;83.39;98436.25;5018744;28;20480;-73
2022/04/09 08:40:39;;;;;;;9.60;4.03;;;;;;;4.95;84.83;98410.41;5009038;28;20045;-75
2022/04/09 08:43:05;;;;;;;12.73;4.10;;;;;;;5.12;85.54;98435.25;5017431;28;20021;-72
2022/04/09 08:45:35;;;;;;;10.88;4.03;;;;;;;5.32;84.41;98430.28;5001217;28;20057;-69
2022/04/09 08:48:02;;;;;;;10.85;3.75;;;;;;;5.90;83.32;98427.94;5009672;28;20030;-75
2022/04/09 08:50:28;;;;;;;13.10;3.92;;;;;;;5.69;79.09;98373.09;5004286;28;20031;-76
2022/04/09 08:52:53;;;;;;;7.70;4.10;;;;;;;5.97;80.54;98412.78;5009544;28;20042;-76
2022/04/09 08:55:19;;;;;;;9.43;4.18;;;;;;;6.57;78.96;98427.88;5019516;28;20045;-73
2022/04/09 08:57:45;;;;;;;12.93;4.10;;;;;;;6.28;77.78;98436.78;5012504;28;20046;-79
2022/04/09 09:00:13;;;;;;;8.75;3.90;;;;;;;8.37;69.86;98439.53;5011224;28;20116;-73
2022/04/09 09:02:51;;;;;;;9.27;3.42;;;;;;;9.71;64.81;98437.09;4993239;28;20030;-75
2022/04/09 09:05:52;;;;;;;8.98;3.40;;;;;;;7.87;67.82;98436.91;4995134;28;20030;-72
2022/04/09 09:08:34;;;;;;;5.75;3.42;;;;;;;7.64;69.58;98419.09;4986391;28;20400;-73
2022/04/09 09:11:00;;;;;;;7.10;3.05;;;;;;;7.58;68.41;98427.13;4991075;28;20030;-74
2022/04/09 09:13:25;;;;;;;10.27;3.78;;;;;;;7.28;70.86;98447.94;4989037;28;20079;-72
2022/04/09 09:15:53;;;;;;;8.82;3.17;;;;;;;7.07;71.49;98425.38;4981441;28;20026;-79
2022/04/09 09:18:25;;;;;;;11.25;3.10;;;;;;;7.14;70.42;98433.53;4990931;28;20026;-74
2022/04/09 09:20:55;;;;;;;6.60;3.08;;;;;;;7.21;70.81;98435.25;4985218;28;20026;-70
2022/04/09 09:23:27;;;;;;;11.77;3.17;;;;;;;7.23;71.23;98395.56;4976461;28;20033;-73
2022/04/09 09:25:55;;;;;;;10.48;2.88;;;;;;;7.36;71.01;98431.66;4986639;28;20022;-73
2022/04/09 09:28:25;;;;;;;7.25;2.80;;;;;;;6.78;71.56;98448.63;4994119;28;20066;-75
2022/04/09 09:30:50;;;;;;;10.40;2.72;;;;;;;6.86;70.45;98452.22;4996028;28;20026;-74
2022/04/09 09:33:16;;;;;;;6.25;2.75;;;;;;;7.15;70.13;98444.09;4990866;28;20559;-74
2022/04/09 09:35:49;;;;;;;10.85;3.35;;;;;;;7.14;69.38;98463.13;4993720;28;20538;-75
2022/04/09 09:38:27;;;;;;;7.90;3.70;;;;;;;7.35;69.53;98463.13;4994911;28;20029;-76
2022/04/09 09:40:53;;;;;;;8.90;2.75;;;;;;;7.87;65.70;98456.59;4991445;28;20131;-74
2022/04/09 09:43:20;;;;;;;7.72;2.53;;;;;;;7.68;67.28;98455.41;4991618;28;20636;-69
2022/04/09 09:45:47;;;;;;;6.40;2.40;;;;;;;8.56;63.83;98436.13;4990904;28;20034;-72
2022/04/09 09:48:29;;;;;;;8.63;2.75;;;;;;;10.06;60.30;98447.69;4993954;28;20026;-71
2022/04/09 09:50:56;;;;;;;8.55;2.28;;;;;;;14.37;51.96;98439.47;4982476;28;20109;-72
2022/04/09 09:53:28;;;;;;;8.88;2.30;;;;;;;14.88;46.80;98439.78;4980985;28;20026;-72
2022/04/09 09:55:55;;;;;;;5.75;2.58;;;;;;;15.61;46.18;98437.41;4997504;28;20037;-73
2022/04/09 09:58:23;;;;;;;8.85;2.42;;;;;;;17.36;42.27;98431.56;4985003;28;20041;-72
2022/04/09 10:00:48;;;;;;;4.60;2.10;;;;;;;17.48;41.78;98436.91;4987923;28;20449;-72
2022/04/09 10:03:14;;;;;;;7.28;2.20;;;;;;;16.08;42.69;98446.16;4980997;28;20109;-72
2022/04/09 10:05:41;;;;;;;7.93;2.20;;;;;;;16.78;42.84;98438.50;4983239;28;20014;-72
2022/04/09 10:08:07;;;;;;;4.15;2.03;;;;;;;17.74;38.31;98435.25;4985755;28;20030;-72
2022/04/09 10:10:37;;;;;;;6.65;1.75;;;;;;;16.39;40.87;98452.94;4983402;28;20566;-72
2022/04/09 10:13:06;;;;;;;7.47;2.20;;;;;;;13.63;45.55;98455.34;4979743;28;20037;-72
2022/04/09 10:15:32;;;;;;;5.70;2.20;;;;;;;10.59;50.43;98458.50;4989773;28;20138;-72
2022/04/09 10:18:00;;;;;;;9.02;2.28;;;;;;;8.75;57.96;98450.75;4988117;28;20041;-71
2022/04/09 10:20:28;;;;;;;9.30;2.47;;;;;;;9.60;56.10;98472.84;4976252;28;20018;-71
2022/04/09 10:22:58;;;;;;;10.90;2.65;;;;;;;10.24;56.06;98466.84;4985403;28;20095;-70
2022/04/09 10:25:29;;;;;;;6.55;2.10;;;;;;;9.31;56.62;98449.72;4982211;28;20026;-70
2022/04/09 10:28:02;;;;;;;8.07;3.28;;;;;;;9.32;58.51;98471.09;4989038;28;20393;-69
2022/04/09 10:30:36;;;;;;;8.02;2.70;;;;;;;9.04;59.27;98478.47;4980290;28;20511;-74
2022/04/09 10:33:02;;;;;;;7.35;2.42;;;;;;;8.91;60.40;98477.41;4982005;28;20030;-72
2022/04/09 10:35:41;;;;;;;5.88;2.20;;;;;;;8.55;59.24;98469.53;4972806;28;20096;-70
2022/04/09 10:38:06;;;;;;;6.22;2.13;;;;;;;8.50;62.24;98480.09;4987954;28;20030;-71
2022/04/09 10:40:31;;;;;;;6.47;2.17;;;;;;;9.82;58.34;98431.09;4987531;28;20850;-69
2022/04/09 10:42:57;;;;;;;7.07;1.90;;;;;;;9.42;56.73;98452.66;4983859;28;20036;-69
2022/04/09 10:45:22;;;;;;;7.28;2.25;;;;;;;10.26;56.71;98464.75;4979823;28;20551;-71
2022/04/09 10:48:10;;;;;;;12.57;2.50;;;;;;;10.59;54.22;98468.50;4976206;28;20566;-69
2022/04/09 10:51:14;;;;;;;8.60;1.92;;;;;;;13.13;49.40;98461.00;4986406;28;20117;-70
2022/04/09 10:53:47;;;;;;;6.60;2.20;;;;;;;14.46;44.88;98454.41;4974628;28;20495;-70
2022/04/09 10:56:32;;;;;;;8.52;2.08;;;;;;;15.18;43.29;98457.88;4988706;28;20026;-70
2022/04/09 10:59:06;;;;;;;7.82;2.15;;;;;;;14.66;45.40;98462.22;4977819;28;20029;-70
2022/04/09 11:01:50;;;;;;;5.93;1.88;;;;;;;15.82;40.99;98461.28;4977948;28;20065;-70
2022/04/09 11:07:08;;;;;;;5.03;2.03;;;;;;;11.32;50.53;98460.09;4990239;28;20088;-73
2022/04/09 11:09:43;;;;;;;6.88;2.17;;;;;;;11.05;50.64;98462.91;4976293;28;20027;-70
2022/04/09 11:12:09;;;;;;;5.78;2.05;;;;;;;10.35;53.88;98445.63;4979737;28;20038;-69
2022/04/09 11:14:45;;;;;;;7.00;1.73;;;;;;;13.36;48.98;98454.88;4986634;28;20041;-70
2022/04/09 11:17:16;;;;;;;3.80;1.95;;;;;;;14.40;42.74;98430.84;4985511;28;20026;-69
2022/04/09 11:19:42;;;;;;;6.35;1.98;;;;;;;12.94;45.41;98433.88;4990798;28;20045;-72
2022/04/09 11:22:09;;;;;;;6.15;2.20;;;;;;;13.05;45.54;98434.16;4981434;28;20038;-70
2022/04/09 11:24:38;;;;;;;5.97;2.13;;;;;;;14.39;43.57;98428.38;4985286;28;20155;-72
2022/04/09 11:27:04;;;;;;;4.13;2.03;;;;;;;15.17;41.08;98432.53;4992750;28;20033;-70
2022/04/09 11:29:35;;;;;;;9.43;2.35;;;;;;;16.14;39.64;98438.91;4983763;28;20456;-72
2022/04/09 11:32:01;;;;;;;5.25;1.90;;;;;;;14.96;40.40;98438.59;4986472;28;20034;-73
2022/04/09 11:34:26;;;;;;;4.78;2.00;;;;;;;13.71;43.64;98430.53;4986636;28;20405;-71
2022/04/09 11:37:12;;;;;;;5.57;1.88;;;;;;;13.24;43.25;98438.50;4988971;28;20047;-74
2022/04/09 11:39:40;;;;;;;6.68;1.98;;;;;;;11.82;45.98;98430.38;4986177;28;20030;-72